sensor_id;sensor_type;location;lat;lon;timestamp;pressure;altitude;pressure_sealevel;temperature;humidity
10460;BME280;54412;51.206;6.888;2023-08-30T00:00:49;100183.19;;;17.53;79.29
10460;BME280;54412;51.206;6.888;2023-08-30T00:03:15;100182.34;;;17.73;78.86
10460;BME280;54412;51.206;6.888;2023-08-30T00:05:42;100178.75;;;17.63;79.89
10460;BME280;54412;51.206;6.888;2023-08-30T00:08:10;100181.28;;;17.44;80.86
10460;BME280;54412;51.206;6.888;2023-08-30T00:10:36;100184.81;;;17.65;80.39
10460;BME280;54412;51.206;6.888;2023-08-30T00:13:03;100182.22;;;17.54;80.91
10460;BME280;54412;51.206;6.888;2023-08-30T00:15:29;100175.34;;;17.51;81.31
10460;BME280;54412;51.206;6.888;2023-08-30T00:17:55;100173.69;;;17.39;81.75
10460;BME280;54412;51.206;6.888;2023-08-30T00:20:21;100188.09;;;17.48;81.81
10460;BME280;54412;51.206;6.888;2023-08-30T00:22:47;100180.31;;;17.45;81.70
10460;BME280;54412;51.206;6.888;2023-08-30T00:25:16;100188.31;;;17.45;81.99
10460;BME280;54412;51.206;6.888;2023-08-30T00:27:42;100177.88;;;17.53;81.65
10460;BME280;54412;51.206;6.888;2023-08-30T00:30:08;100181.94;;;17.36;82.14
10460;BME280;54412;51.206;6.888;2023-08-30T00:32:35;100183.00;;;17.45;82.10
10460;BME280;54412;51.206;6.888;2023-08-30T00:35:01;100179.69;;;17.52;81.80
10460;BME280;54412;51.206;6.888;2023-08-30T00:37:27;100182.13;;;17.44;81.93
10460;BME280;54412;51.206;6.888;2023-08-30T00:39:53;100173.75;;;17.49;81.54
10460;BME280;54412;51.206;6.888;2023-08-30T00:42:18;100177.72;;;17.54;81.02
10460;BME280;54412;51.206;6.888;2023-08-30T00:44:44;100172.50;;;17.32;82.08
10460;BME280;54412;51.206;6.888;2023-08-30T00:47:10;100157.94;;;17.36;81.88
10460;BME280;54412;51.206;6.888;2023-08-30T00:49:36;100159.50;;;17.39;81.88
10460;BME280;54412;51.206;6.888;2023-08-30T00:52:09;100156.19;;;17.26;82.38
10460;BME280;54412;51.206;6.888;2023-08-30T00:54:35;100155.53;;;17.33;82.31
10460;BME280;54412;51.206;6.888;2023-08-30T00:57:02;100158.53;;;17.40;82.33
10460;BME280;54412;51.206;6.888;2023-08-30T00:59:29;100158.22;;;17.54;81.11
10460;BME280;54412;51.206;6.888;2023-08-30T01:01:58;100152.78;;;17.55;80.96
10460;BME280;54412;51.206;6.888;2023-08-30T01:04:26;100156.97;;;17.37;81.42
10460;BME280;54412;51.206;6.888;2023-08-30T01:06:52;100154.75;;;17.22;81.97
10460;BME280;54412;51.206;6.888;2023-08-30T01:09:18;100154.31;;;17.37;81.54
10460;BME280;54412;51.206;6.888;2023-08-30T01:17:10;100140.84;;;17.18;82.35
10460;BME280;54412;51.206;6.888;2023-08-30T01:20:05;100137.16;;;17.30;81.72
10460;BME280;54412;51.206;6.888;2023-08-30T01:28:29;100126.53;;;16.99;83.36
10460;BME280;54412;51.206;6.888;2023-08-30T01:30:57;100125.50;;;17.11;83.32
10460;BME280;54412;51.206;6.888;2023-08-30T01:33:24;100120.16;;;17.11;82.89
10460;BME280;54412;51.206;6.888;2023-08-30T01:35:56;100123.16;;;16.97;83.36
10460;BME280;54412;51.206;6.888;2023-08-30T01:38:25;100124.22;;;17.05;82.52
10460;BME280;54412;51.206;6.888;2023-08-30T01:40:55;100122.38;;;17.06;82.35
10460;BME280;54412;51.206;6.888;2023-08-30T01:43:22;100122.84;;;16.90;83.42
10460;BME280;54412;51.206;6.888;2023-08-30T01:45:49;100127.75;;;16.95;83.19
10460;BME280;54412;51.206;6.888;2023-08-30T01:48:16;100122.25;;;17.07;82.52
10460;BME280;54412;51.206;6.888;2023-08-30T01:50:44;100121.59;;;17.15;81.99
10460;BME280;54412;51.206;6.888;2023-08-30T01:53:13;100124.09;;;16.75;83.19
10460;BME280;54412;51.206;6.888;2023-08-30T01:55:39;100120.03;;;16.92;82.63
10460;BME280;54412;51.206;6.888;2023-08-30T01:58:07;100121.66;;;17.04;82.16
10460;BME280;54412;51.206;6.888;2023-08-30T02:00:34;100125.19;;;17.04;81.45
10460;BME280;54412;51.206;6.888;2023-08-30T02:03:11;100126.03;;;17.05;80.87
10460;BME280;54412;51.206;6.888;2023-08-30T02:05:56;100125.78;;;16.87;81.17
10460;BME280;54412;51.206;6.888;2023-08-30T02:08:32;100123.22;;;16.86;82.03
10460;BME280;54412;51.206;6.888;2023-08-30T02:11:08;100129.44;;;16.75;83.10
10460;BME280;54412;51.206;6.888;2023-08-30T02:13:37;100128.13;;;16.69;83.20
10460;BME280;54412;51.206;6.888;2023-08-30T02:16:04;100136.22;;;16.79;82.54
10460;BME280;54412;51.206;6.888;2023-08-30T02:18:31;100124.09;;;16.75;81.87
10460;BME280;54412;51.206;6.888;2023-08-30T02:20:57;100129.84;;;16.91;81.62
10460;BME280;54412;51.206;6.888;2023-08-30T02:23:24;100117.69;;;16.78;82.06
10460;BME280;54412;51.206;6.888;2023-08-30T02:25:50;100122.69;;;16.71;82.42
10460;BME280;54412;51.206;6.888;2023-08-30T02:28:16;100128.75;;;16.94;80.69
10460;BME280;54412;51.206;6.888;2023-08-30T02:30:42;100129.44;;;16.75;81.27
10460;BME280;54412;51.206;6.888;2023-08-30T02:33:07;100126.31;;;16.70;82.30
10460;BME280;54412;51.206;6.888;2023-08-30T02:35:33;100134.75;;;16.54;83.66
10460;BME280;54412;51.206;6.888;2023-08-30T02:37:59;100126.16;;;16.40;84.74
10460;BME280;54412;51.206;6.888;2023-08-30T02:40:25;100119.84;;;16.52;84.09
10460;BME280;54412;51.206;6.888;2023-08-30T02:42:50;100114.41;;;16.42;84.86
10460;BME280;54412;51.206;6.888;2023-08-30T02:45:16;100110.78;;;16.54;84.13
10460;BME280;54412;51.206;6.888;2023-08-30T02:47:44;100110.84;;;16.64;83.81
10460;BME280;54412;51.206;6.888;2023-08-30T02:50:10;100111.09;;;16.61;84.08
10460;BME280;54412;51.206;6.888;2023-08-30T02:52:35;100102.53;;;16.57;83.98
10460;BME280;54412;51.206;6.888;2023-08-30T02:55:01;100101.63;;;16.68;83.23
10460;BME280;54412;51.206;6.888;2023-08-30T02:57:27;100096.47;;;16.55;83.86
10460;BME280;54412;51.206;6.888;2023-08-30T02:59:53;100101.91;;;16.65;82.63
10460;BME280;54412;51.206;6.888;2023-08-30T03:02:18;100088.75;;;16.41;83.97
10460;BME280;54412;51.206;6.888;2023-08-30T03:04:44;100089.47;;;16.54;83.56
10460;BME280;54412;51.206;6.888;2023-08-30T03:07:10;100092.88;;;16.56;83.22
10460;BME280;54412;51.206;6.888;2023-08-30T03:09:35;100097.75;;;16.29;84.46
10460;BME280;54412;51.206;6.888;2023-08-30T03:12:01;100086.81;;;16.43;83.47
10460;BME280;54412;51.206;6.888;2023-08-30T03:14:27;100088.31;;;16.36;83.66
10460;BME280;54412;51.206;6.888;2023-08-30T03:16:52;100093.94;;;16.54;82.63
10460;BME280;54412;51.206;6.888;2023-08-30T03:19:18;100094.22;;;16.51;82.63
10460;BME280;54412;51.206;6.888;2023-08-30T03:21:44;100092.06;;;16.23;83.70
10460;BME280;54412;51.206;6.888;2023-08-30T03:24:09;100093.72;;;16.46;83.16
10460;BME280;54412;51.206;6.888;2023-08-30T03:26:35;100082.97;;;16.47;82.64
10460;BME280;54412;51.206;6.888;2023-08-30T03:29:01;100077.78;;;16.35;83.05
10460;BME280;54412;51.206;6.888;2023-08-30T03:31:27;100084.47;;;16.29;83.59
10460;BME280;54412;51.206;6.888;2023-08-30T03:33:52;100073.78;;;16.40;82.77
10460;BME280;54412;51.206;6.888;2023-08-30T03:36:18;100078.88;;;16.32;82.43
10460;BME280;54412;51.206;6.888;2023-08-30T03:38:45;100078.84;;;16.54;81.72
10460;BME280;54412;51.206;6.888;2023-08-30T03:41:12;100067.94;;;16.46;81.59
10460;BME280;54412;51.206;6.888;2023-08-30T03:43:38;100070.59;;;16.46;81.75
10460;BME280;54412;51.206;6.888;2023-08-30T03:46:04;100078.03;;;16.32;82.02
10460;BME280;54412;51.206;6.888;2023-08-30T03:48:31;100073.66;;;16.42;82.11
10460;BME280;54412;51.206;6.888;2023-08-30T03:50:57;100073.25;;;16.46;82.08
10460;BME280;54412;51.206;6.888;2023-08-30T03:53:24;100072.47;;;16.35;82.58
10460;BME280;54412;51.206;6.888;2023-08-30T03:55:50;100076.34;;;16.31;82.54
10460;BME280;54412;51.206;6.888;2023-08-30T03:58:18;100077.09;;;16.22;83.10
10460;BME280;54412;51.206;6.888;2023-08-30T04:00:44;100077.84;;;16.44;81.45
10460;BME280;54412;51.206;6.888;2023-08-30T04:03:10;100070.59;;;16.15;83.15
10460;BME280;54412;51.206;6.888;2023-08-30T04:05:37;100071.91;;;16.20;83.19
10460;BME280;54412;51.206;6.888;2023-08-30T04:08:05;100061.00;;;16.23;82.97
10460;BME280;54412;51.206;6.888;2023-08-30T04:10:38;100066.78;;;16.28;82.53
10460;BME280;54412;51.206;6.888;2023-08-30T04:13:05;100061.72;;;16.25;81.85
10460;BME280;54412;51.206;6.888;2023-08-30T04:15:38;100060.47;;;16.40;80.79
10460;BME280;54412;51.206;6.888;2023-08-30T04:18:05;100060.28;;;16.21;82.02
10460;BME280;54412;51.206;6.888;2023-08-30T04:20:32;100058.13;;;16.15;82.43
10460;BME280;54412;51.206;6.888;2023-08-30T04:22:59;100071.66;;;16.23;82.52
10460;BME280;54412;51.206;6.888;2023-08-30T04:25:28;100068.66;;;16.17;82.88
10460;BME280;54412;51.206;6.888;2023-08-30T04:27:54;100056.16;;;16.17;83.88
10460;BME280;54412;51.206;6.888;2023-08-30T04:30:20;100057.25;;;16.26;83.17
10460;BME280;54412;51.206;6.888;2023-08-30T04:32:46;100054.47;;;16.27;83.94
10460;BME280;54412;51.206;6.888;2023-08-30T04:35:12;100048.00;;;16.09;84.42
10460;BME280;54412;51.206;6.888;2023-08-30T04:37:37;100040.00;;;16.09;84.44
10460;BME280;54412;51.206;6.888;2023-08-30T04:40:09;100051.38;;;16.43;82.90
10460;BME280;54412;51.206;6.888;2023-08-30T04:42:36;100046.94;;;16.32;83.25
10460;BME280;54412;51.206;6.888;2023-08-30T04:45:04;100047.97;;;16.20;83.41
10460;BME280;54412;51.206;6.888;2023-08-30T04:47:30;100045.88;;;16.24;83.76
10460;BME280;54412;51.206;6.888;2023-08-30T04:49:56;100038.78;;;16.13;84.60
10460;BME280;54412;51.206;6.888;2023-08-30T04:52:22;100043.13;;;16.14;84.53
10460;BME280;54412;51.206;6.888;2023-08-30T04:54:48;100038.63;;;16.26;84.39
10460;BME280;54412;51.206;6.888;2023-08-30T04:57:15;100038.22;;;16.30;83.75
10460;BME280;54412;51.206;6.888;2023-08-30T04:59:42;100040.16;;;16.28;84.08
10460;BME280;54412;51.206;6.888;2023-08-30T05:02:08;100037.59;;;16.38;83.55
10460;BME280;54412;51.206;6.888;2023-08-30T05:04:34;100031.22;;;16.29;83.51
10460;BME280;54412;51.206;6.888;2023-08-30T05:07:00;100036.56;;;16.29;82.94
10460;BME280;54412;51.206;6.888;2023-08-30T05:09:26;100028.75;;;16.37;83.13
10460;BME280;54412;51.206;6.888;2023-08-30T05:11:53;100023.06;;;16.10;84.02
10460;BME280;54412;51.206;6.888;2023-08-30T05:14:20;100017.75;;;16.10;84.70
10460;BME280;54412;51.206;6.888;2023-08-30T05:16:46;100031.44;;;16.06;84.84
10460;BME280;54412;51.206;6.888;2023-08-30T05:19:12;100025.75;;;15.99;85.14
10460;BME280;54412;51.206;6.888;2023-08-30T05:21:37;100023.31;;;16.07;85.00
10460;BME280;54412;51.206;6.888;2023-08-30T05:24:04;100015.66;;;16.14;84.24
10460;BME280;54412;51.206;6.888;2023-08-30T05:26:33;100009.25;;;16.16;83.93
10460;BME280;54412;51.206;6.888;2023-08-30T05:28:58;100007.50;;;16.06;84.33
10460;BME280;54412;51.206;6.888;2023-08-30T05:31:24;100010.91;;;16.28;83.48
10460;BME280;54412;51.206;6.888;2023-08-30T05:33:50;100000.59;;;16.03;84.30
10460;BME280;54412;51.206;6.888;2023-08-30T05:36:16;100006.22;;;16.21;83.83
10460;BME280;54412;51.206;6.888;2023-08-30T05:38:42;99997.28;;;16.22;83.30
10460;BME280;54412;51.206;6.888;2023-08-30T05:41:08;99992.13;;;16.09;83.75
10460;BME280;54412;51.206;6.888;2023-08-30T05:43:34;99991.63;;;16.15;83.52
10460;BME280;54412;51.206;6.888;2023-08-30T05:46:00;99991.50;;;16.17;83.74
10460;BME280;54412;51.206;6.888;2023-08-30T05:48:30;99993.25;;;16.27;82.80
10460;BME280;54412;51.206;6.888;2023-08-30T05:50:56;99990.63;;;16.16;83.19
10460;BME280;54412;51.206;6.888;2023-08-30T05:53:23;99989.63;;;16.28;82.95
10460;BME280;54412;51.206;6.888;2023-08-30T05:55:49;99988.84;;;16.17;82.60
10460;BME280;54412;51.206;6.888;2023-08-30T05:58:15;99987.03;;;16.38;82.39
10460;BME280;54412;51.206;6.888;2023-08-30T06:00:41;99993.63;;;16.54;82.08
10460;BME280;54412;51.206;6.888;2023-08-30T06:03:07;99982.13;;;16.54;81.72
10460;BME280;54412;51.206;6.888;2023-08-30T06:05:33;99974.03;;;16.55;81.01
10460;BME280;54412;51.206;6.888;2023-08-30T06:07:59;99975.50;;;16.48;82.18
10460;BME280;54412;51.206;6.888;2023-08-30T06:10:25;99966.72;;;16.37;82.83
10460;BME280;54412;51.206;6.888;2023-08-30T06:12:50;99972.84;;;16.48;82.55
10460;BME280;54412;51.206;6.888;2023-08-30T06:15:16;99963.13;;;16.58;81.93
10460;BME280;54412;51.206;6.888;2023-08-30T06:17:42;99960.84;;;16.54;82.26
10460;BME280;54412;51.206;6.888;2023-08-30T06:20:08;99973.47;;;16.41;83.46
10460;BME280;54412;51.206;6.888;2023-08-30T06:22:34;99968.03;;;16.63;82.35
10460;BME280;54412;51.206;6.888;2023-08-30T06:25:00;99970.31;;;16.47;82.77
10460;BME280;54412;51.206;6.888;2023-08-30T06:27:25;99961.28;;;16.59;82.92
10460;BME280;54412;51.206;6.888;2023-08-30T06:29:51;99971.22;;;16.78;82.29
10460;BME280;54412;51.206;6.888;2023-08-30T06:32:17;99957.25;;;16.64;83.10
10460;BME280;54412;51.206;6.888;2023-08-30T06:34:43;99972.88;;;16.69;82.28
10460;BME280;54412;51.206;6.888;2023-08-30T06:37:09;99966.16;;;16.75;82.93
10460;BME280;54412;51.206;6.888;2023-08-30T06:39:35;99971.28;;;16.87;82.02
10460;BME280;54412;51.206;6.888;2023-08-30T06:42:05;99963.78;;;17.02;81.15
10460;BME280;54412;51.206;6.888;2023-08-30T06:44:30;99963.50;;;17.05;81.03
10460;BME280;54412;51.206;6.888;2023-08-30T06:46:57;99962.06;;;17.21;80.29
10460;BME280;54412;51.206;6.888;2023-08-30T06:49:23;99968.25;;;17.31;79.41
10460;BME280;54412;51.206;6.888;2023-08-30T06:51:49;99965.00;;;17.28;79.70
10460;BME280;54412;51.206;6.888;2023-08-30T06:54:15;99959.72;;;17.07;79.47
10460;BME280;54412;51.206;6.888;2023-08-30T06:56:56;99961.66;;;16.96;80.71
10460;BME280;54412;51.206;6.888;2023-08-30T06:59:22;99954.03;;;16.91;80.67
10460;BME280;54412;51.206;6.888;2023-08-30T07:01:48;99944.44;;;17.09;79.64
10460;BME280;54412;51.206;6.888;2023-08-30T07:04:13;99949.44;;;17.33;79.40
10460;BME280;54412;51.206;6.888;2023-08-30T07:06:39;99954.97;;;17.41;78.36
10460;BME280;54412;51.206;6.888;2023-08-30T07:09:05;99955.53;;;17.44;77.85
10460;BME280;54412;51.206;6.888;2023-08-30T07:11:31;99943.72;;;17.37;78.86
10460;BME280;54412;51.206;6.888;2023-08-30T07:13:57;99953.88;;;17.53;78.55
10460;BME280;54412;51.206;6.888;2023-08-30T07:16:23;99946.75;;;17.63;77.50
10460;BME280;54412;51.206;6.888;2023-08-30T07:18:48;99943.66;;;17.48;78.46
10460;BME280;54412;51.206;6.888;2023-08-30T07:21:14;99944.06;;;17.53;77.46
10460;BME280;54412;51.206;6.888;2023-08-30T07:23:40;99940.72;;;17.70;77.78
10460;BME280;54412;51.206;6.888;2023-08-30T07:26:06;99942.56;;;17.80;76.49
10460;BME280;54412;51.206;6.888;2023-08-30T07:28:32;99936.69;;;17.95;76.06
10460;BME280;54412;51.206;6.888;2023-08-30T07:31:05;99941.84;;;17.77;75.49
10460;BME280;54412;51.206;6.888;2023-08-30T07:33:31;99935.97;;;18.03;75.18
10460;BME280;54412;51.206;6.888;2023-08-30T07:35:57;99939.66;;;18.11;75.24
10460;BME280;54412;51.206;6.888;2023-08-30T07:38:23;99935.69;;;18.25;74.27
10460;BME280;54412;51.206;6.888;2023-08-30T07:40:48;99938.53;;;18.04;74.47
10460;BME280;54412;51.206;6.888;2023-08-30T07:43:14;99940.91;;;18.17;73.47
10460;BME280;54412;51.206;6.888;2023-08-30T07:45:40;99931.75;;;18.19;73.36
10460;BME280;54412;51.206;6.888;2023-08-30T07:48:05;99929.66;;;18.23;73.91
10460;BME280;54412;51.206;6.888;2023-08-30T07:50:31;99929.25;;;18.27;72.20
10460;BME280;54412;51.206;6.888;2023-08-30T07:52:57;99928.81;;;18.13;72.73
10460;BME280;54412;51.206;6.888;2023-08-30T07:55:22;99927.81;;;18.52;71.02
10460;BME280;54412;51.206;6.888;2023-08-30T07:57:48;99924.31;;;18.51;71.75
10460;BME280;54412;51.206;6.888;2023-08-30T08:00:14;99933.31;;;18.60;70.02
10460;BME280;54412;51.206;6.888;2023-08-30T08:02:40;99925.97;;;18.62;70.64
10460;BME280;54412;51.206;6.888;2023-08-30T08:05:07;99929.34;;;18.35;71.08
10460;BME280;54412;51.206;6.888;2023-08-30T08:07:32;99936.41;;;18.36;70.51
10460;BME280;54412;51.206;6.888;2023-08-30T08:09:58;99937.50;;;18.34;70.49
10460;BME280;54412;51.206;6.888;2023-08-30T08:12:25;99929.94;;;18.58;69.88
10460;BME280;54412;51.206;6.888;2023-08-30T08:14:51;99931.03;;;18.65;70.21
10460;BME280;54412;51.206;6.888;2023-08-30T08:17:17;99926.97;;;18.61;70.32
10460;BME280;54412;51.206;6.888;2023-08-30T08:19:43;99934.28;;;18.59;70.39
10460;BME280;54412;51.206;6.888;2023-08-30T08:22:09;99929.53;;;18.43;70.82
10460;BME280;54412;51.206;6.888;2023-08-30T08:24:35;99920.34;;;18.65;70.87
10460;BME280;54412;51.206;6.888;2023-08-30T08:27:00;99923.47;;;18.97;68.81
10460;BME280;54412;51.206;6.888;2023-08-30T08:29:27;99930.81;;;18.86;69.56
10460;BME280;54412;51.206;6.888;2023-08-30T08:31:54;99926.47;;;18.85;67.55
10460;BME280;54412;51.206;6.888;2023-08-30T08:34:20;99925.94;;;18.71;67.92
10460;BME280;54412;51.206;6.888;2023-08-30T08:36:45;99919.00;;;18.88;68.16
10460;BME280;54412;51.206;6.888;2023-08-30T08:39:11;99929.78;;;18.96;66.64
10460;BME280;54412;51.206;6.888;2023-08-30T08:41:41;99923.09;;;19.19;65.38
10460;BME280;54412;51.206;6.888;2023-08-30T08:44:09;99912.91;;;19.32;66.05
10460;BME280;54412;51.206;6.888;2023-08-30T08:46:36;99912.09;;;19.32;64.21
10460;BME280;54412;51.206;6.888;2023-08-30T08:49:15;99914.78;;;19.22;64.23
10460;BME280;54412;51.206;6.888;2023-08-30T08:51:43;99914.16;;;19.38;64.90
10460;BME280;54412;51.206;6.888;2023-08-30T08:54:10;99909.41;;;19.76;62.73
10460;BME280;54412;51.206;6.888;2023-08-30T08:56:37;99916.38;;;19.42;62.73
10460;BME280;54412;51.206;6.888;2023-08-30T08:59:03;99913.31;;;19.82;62.53
10460;BME280;54412;51.206;6.888;2023-08-30T09:01:33;99918.72;;;19.90;60.84
10460;BME280;54412;51.206;6.888;2023-08-30T09:04:08;99914.06;;;19.92;61.01
10460;BME280;54412;51.206;6.888;2023-08-30T09:06:35;99917.44;;;19.76;60.49
10460;BME280;54412;51.206;6.888;2023-08-30T09:09:03;99911.00;;;19.69;61.53
10460;BME280;54412;51.206;6.888;2023-08-30T09:11:33;99911.22;;;19.58;61.27
10460;BME280;54412;51.206;6.888;2023-08-30T09:13:59;99914.25;;;19.46;62.11
10460;BME280;54412;51.206;6.888;2023-08-30T09:16:25;99914.94;;;19.48;63.11
10460;BME280;54412;51.206;6.888;2023-08-30T09:21:25;99916.97;;;19.00;66.19
10460;BME280;54412;51.206;6.888;2023-08-30T09:24:01;99910.13;;;18.88;68.19
10460;BME280;54412;51.206;6.888;2023-08-30T09:26:29;99919.84;;;18.89;67.87
10460;BME280;54412;51.206;6.888;2023-08-30T09:29:07;99913.66;;;18.88;68.06
10460;BME280;54412;51.206;6.888;2023-08-30T09:31:35;99902.81;;;18.90;68.36
10460;BME280;54412;51.206;6.888;2023-08-30T09:34:01;99905.34;;;18.91;67.86
10460;BME280;54412;51.206;6.888;2023-08-30T09:39:12;99902.50;;;18.93;68.88
10460;BME280;54412;51.206;6.888;2023-08-30T09:41:48;99894.09;;;18.88;69.87
10460;BME280;54412;51.206;6.888;2023-08-30T09:44:18;99891.69;;;18.94;69.84
10460;BME280;54412;51.206;6.888;2023-08-30T09:46:49;99888.50;;;18.91;68.83
10460;BME280;54412;51.206;6.888;2023-08-30T09:49:19;99888.53;;;18.71;68.57
10460;BME280;54412;51.206;6.888;2023-08-30T09:51:51;99880.31;;;18.92;68.38
10460;BME280;54412;51.206;6.888;2023-08-30T09:54:25;99873.25;;;19.01;68.63
10460;BME280;54412;51.206;6.888;2023-08-30T09:56:51;99872.22;;;19.02;68.41
10460;BME280;54412;51.206;6.888;2023-08-30T09:59:19;99883.63;;;19.04;67.97
10460;BME280;54412;51.206;6.888;2023-08-30T10:01:47;99877.88;;;18.99;66.86
10460;BME280;54412;51.206;6.888;2023-08-30T10:04:20;99878.06;;;18.88;68.43
10460;BME280;54412;51.206;6.888;2023-08-30T10:06:47;99874.31;;;18.81;67.75
10460;BME280;54412;51.206;6.888;2023-08-30T10:09:15;99880.75;;;18.88;67.81
10460;BME280;54412;51.206;6.888;2023-08-30T10:11:44;99871.78;;;18.79;69.72
10460;BME280;54412;51.206;6.888;2023-08-30T10:14:13;99872.38;;;18.73;70.53
10460;BME280;54412;51.206;6.888;2023-08-30T10:16:47;99873.38;;;18.72;71.14
10460;BME280;54412;51.206;6.888;2023-08-30T10:19:23;99879.31;;;18.56;72.18
10460;BME280;54412;51.206;6.888;2023-08-30T10:22:01;99875.09;;;18.54;73.26
10460;BME280;54412;51.206;6.888;2023-08-30T10:24:45;99874.16;;;18.45;74.00
10460;BME280;54412;51.206;6.888;2023-08-30T10:27:14;99866.16;;;18.45;73.54
10460;BME280;54412;51.206;6.888;2023-08-30T10:29:43;99869.63;;;18.55;73.53
10460;BME280;54412;51.206;6.888;2023-08-30T10:32:10;99874.56;;;18.41;75.21
10460;BME280;54412;51.206;6.888;2023-08-30T10:34:36;99867.25;;;18.33;75.34
10460;BME280;54412;51.206;6.888;2023-08-30T10:37:12;99861.66;;;18.17;76.16
10460;BME280;54412;51.206;6.888;2023-08-30T10:39:40;99865.03;;;18.29;75.49
10460;BME280;54412;51.206;6.888;2023-08-30T10:42:12;99865.28;;;18.35;75.86
10460;BME280;54412;51.206;6.888;2023-08-30T10:45:07;99861.06;;;18.52;74.98
10460;BME280;54412;51.206;6.888;2023-08-30T10:47:37;99875.69;;;18.38;76.16
10460;BME280;54412;51.206;6.888;2023-08-30T10:50:11;99861.06;;;18.42;73.80
10460;BME280;54412;51.206;6.888;2023-08-30T10:52:37;99857.28;;;18.35;74.50
10460;BME280;54412;51.206;6.888;2023-08-30T10:55:10;99885.13;;;18.33;75.37
10460;BME280;54412;51.206;6.888;2023-08-30T10:57:37;99897.09;;;17.91;79.21
10460;BME280;54412;51.206;6.888;2023-08-30T11:02:35;99902.84;;;17.77;82.31
10460;BME280;54412;51.206;6.888;2023-08-30T11:05:02;99899.19;;;17.97;83.13
10460;BME280;54412;51.206;6.888;2023-08-30T11:07:31;99899.63;;;17.83;84.13
10460;BME280;54412;51.206;6.888;2023-08-30T11:09:58;99908.16;;;17.57;85.19
10460;BME280;54412;51.206;6.888;2023-08-30T11:12:24;99912.00;;;17.34;86.20
10460;BME280;54412;51.206;6.888;2023-08-30T11:14:52;99905.84;;;17.04;88.42
10460;BME280;54412;51.206;6.888;2023-08-30T11:17:19;99905.38;;;17.19;89.13
10460;BME280;54412;51.206;6.888;2023-08-30T11:19:45;99897.63;;;17.16;88.67
10460;BME280;54412;51.206;6.888;2023-08-30T11:22:14;99902.28;;;17.24;88.26
10460;BME280;54412;51.206;6.888;2023-08-30T11:24:42;99895.72;;;17.28;88.50
10460;BME280;54412;51.206;6.888;2023-08-30T11:27:09;99894.06;;;17.46;88.05
10460;BME280;54412;51.206;6.888;2023-08-30T11:29:35;99895.28;;;17.32;89.07
10460;BME280;54412;51.206;6.888;2023-08-30T11:32:01;99893.81;;;17.49;88.66
10460;BME280;54412;51.206;6.888;2023-08-30T11:34:27;99902.53;;;17.51;89.57
10460;BME280;54412;51.206;6.888;2023-08-30T11:36:53;99892.50;;;17.43;89.68
10460;BME280;54412;51.206;6.888;2023-08-30T11:39:19;99895.09;;;17.54;89.01
10460;BME280;54412;51.206;6.888;2023-08-30T11:41:48;99888.53;;;17.68;88.29
10460;BME280;54412;51.206;6.888;2023-08-30T11:44:13;99884.16;;;17.57;88.54
10460;BME280;54412;51.206;6.888;2023-08-30T11:46:39;99885.69;;;17.60;88.92
10460;BME280;54412;51.206;6.888;2023-08-30T11:49:05;99886.75;;;17.38;88.57
10460;BME280;54412;51.206;6.888;2023-08-30T11:51:31;99891.47;;;17.25;90.08
10460;BME280;54412;51.206;6.888;2023-08-30T11:53:58;99887.53;;;17.10;91.31
10460;BME280;54412;51.206;6.888;2023-08-30T11:56:25;99886.72;;;17.29;90.41
10460;BME280;54412;51.206;6.888;2023-08-30T11:58:50;99887.81;;;17.17;91.39
10460;BME280;54412;51.206;6.888;2023-08-30T12:01:18;99887.47;;;17.40;90.40
10460;BME280;54412;51.206;6.888;2023-08-30T12:03:45;99892.66;;;17.42;90.79
10460;BME280;54412;51.206;6.888;2023-08-30T12:06:16;99892.50;;;17.34;90.95
10460;BME280;54412;51.206;6.888;2023-08-30T12:08:43;99896.44;;;17.39;91.56
10460;BME280;54412;51.206;6.888;2023-08-30T12:11:19;99897.97;;;17.42;91.30
10460;BME280;54412;51.206;6.888;2023-08-30T12:13:46;99893.03;;;17.28;93.10
10460;BME280;54412;51.206;6.888;2023-08-30T12:16:17;99883.31;;;17.57;91.25
10460;BME280;54412;51.206;6.888;2023-08-30T12:18:43;99878.69;;;17.59;90.80
10460;BME280;54412;51.206;6.888;2023-08-30T12:21:09;99885.22;;;17.36;91.70
10460;BME280;54412;51.206;6.888;2023-08-30T12:23:35;99884.09;;;17.38;92.14
10460;BME280;54412;51.206;6.888;2023-08-30T12:26:04;99891.69;;;17.43;92.35
10460;BME280;54412;51.206;6.888;2023-08-30T12:28:38;99883.25;;;17.28;92.84
10460;BME280;54412;51.206;6.888;2023-08-30T12:31:04;99875.41;;;17.46;92.50
10460;BME280;54412;51.206;6.888;2023-08-30T12:33:30;99872.22;;;17.61;92.10
10460;BME280;54412;51.206;6.888;2023-08-30T12:35:57;99885.53;;;17.61;92.42
10460;BME280;54412;51.206;6.888;2023-08-30T12:38:24;99880.66;;;17.57;92.93
10460;BME280;54412;51.206;6.888;2023-08-30T12:40:53;99878.97;;;17.65;92.65
10460;BME280;54412;51.206;6.888;2023-08-30T12:43:20;99875.47;;;17.74;92.17
10460;BME280;54412;51.206;6.888;2023-08-30T12:45:47;99874.75;;;17.63;92.25
10460;BME280;54412;51.206;6.888;2023-08-30T12:48:15;99875.13;;;17.39;92.82
10460;BME280;54412;51.206;6.888;2023-08-30T12:50:45;99884.44;;;17.54;92.74
10460;BME280;54412;51.206;6.888;2023-08-30T12:53:11;99872.63;;;17.47;92.62
10460;BME280;54412;51.206;6.888;2023-08-30T12:55:37;99877.69;;;17.50;93.28
10460;BME280;54412;51.206;6.888;2023-08-30T12:58:07;99887.75;;;17.37;93.24
10460;BME280;54412;51.206;6.888;2023-08-30T13:00:35;99888.88;;;17.44;93.02
10460;BME280;54412;51.206;6.888;2023-08-30T13:03:01;99889.72;;;17.45;93.46
10460;BME280;54412;51.206;6.888;2023-08-30T13:05:29;99895.78;;;17.47;92.68
10460;BME280;54412;51.206;6.888;2023-08-30T13:07:56;99879.59;;;17.39;93.55
10460;BME280;54412;51.206;6.888;2023-08-30T13:10:21;99880.44;;;17.30;92.72
10460;BME280;54412;51.206;6.888;2023-08-30T13:12:47;99884.66;;;17.42;93.77
10460;BME280;54412;51.206;6.888;2023-08-30T13:15:13;99870.47;;;17.41;93.71